sensor_id;sensor_type;location;lat;lon;timestamp;P1;durP1;ratioP1;P2;durP2;ratioP2
33022;SDS011;19390;51.460;5.710;2023-05-10T00:00:52;11.65;;;9.38;;
33022;SDS011;19390;51.460;5.710;2023-05-10T00:03:18;10.25;;;8.43;;
33022;SDS011;19390;51.460;5.710;2023-05-10T00:05:43;17.33;;;11.05;;
33022;SDS011;19390;51.460;5.710;2023-05-10T00:08:09;15.07;;;11.07;;
33022;SDS011;19390;51.460;5.710;2023-05-10T00:10:34;16.17;;;11.13;;
33022;SDS011;19390;51.460;5.710;2023-05-10T00:13:01;16.27;;;11.38;;
33022;SDS011;19390;51.460;5.710;2023-05-10T00:15:26;16.13;;;11.38;;
33022;SDS011;19390;51.460;5.710;2023-05-10T00:17:52;13.13;;;9.98;;
33022;SDS011;19390;51.460;5.710;2023-05-10T00:20:18;14.98;;;11.93;;
33022;SDS011;19390;51.460;5.710;2023-05-10T00:22:43;18.83;;;12.68;;
33022;SDS011;19390;51.460;5.710;2023-05-10T00:25:09;21.40;;;13.88;;
33022;SDS011;19390;51.460;5.710;2023-05-10T00:27:35;17.90;;;11.73;;
33022;SDS011;19390;51.460;5.710;2023-05-10T00:30:01;15.23;;;11.95;;
33022;SDS011;19390;51.460;5.710;2023-05-10T00:32:26;22.77;;;14.70;;
33022;SDS011;19390;51.460;5.710;2023-05-10T00:34:52;18.38;;;14.05;;
33022;SDS011;19390;51.460;5.710;2023-05-10T00:37:17;21.13;;;14.00;;
33022;SDS011;19390;51.460;5.710;2023-05-10T00:39:43;20.15;;;14.73;;
33022;SDS011;19390;51.460;5.710;2023-05-10T00:42:09;23.13;;;14.73;;
33022;SDS011;19390;51.460;5.710;2023-05-10T00:44:34;22.10;;;15.85;;
33022;SDS011;19390;51.460;5.710;2023-05-10T00:47:00;22.30;;;15.75;;
33022;SDS011;19390;51.460;5.710;2023-05-10T00:49:26;23.70;;;16.65;;
33022;SDS011;19390;51.460;5.710;2023-05-10T00:51:51;29.80;;;17.73;;
33022;SDS011;19390;51.460;5.710;2023-05-10T00:54:17;28.77;;;17.92;;
33022;SDS011;19390;51.460;5.710;2023-05-10T00:56:43;23.98;;;17.00;;
33022;SDS011;19390;51.460;5.710;2023-05-10T00:59:14;32.38;;;19.58;;
33022;SDS011;19390;51.460;5.710;2023-05-10T01:01:43;38.72;;;22.35;;
33022;SDS011;19390;51.460;5.710;2023-05-10T01:04:13;32.47;;;20.15;;
33022;SDS011;19390;51.460;5.710;2023-05-10T01:06:39;33.30;;;21.10;;
33022;SDS011;19390;51.460;5.710;2023-05-10T01:09:05;38.65;;;22.27;;
33022;SDS011;19390;51.460;5.710;2023-05-10T01:11:33;36.88;;;22.65;;
33022;SDS011;19390;51.460;5.710;2023-05-10T01:14:00;33.70;;;21.20;;
33022;SDS011;19390;51.460;5.710;2023-05-10T01:16:27;43.65;;;24.60;;
33022;SDS011;19390;51.460;5.710;2023-05-10T01:18:56;39.38;;;24.40;;
33022;SDS011;19390;51.460;5.710;2023-05-10T01:21:23;45.10;;;24.80;;
33022;SDS011;19390;51.460;5.710;2023-05-10T01:30:43;43.55;;;25.50;;
33022;SDS011;19390;51.460;5.710;2023-05-10T01:33:19;55.65;;;29.20;;
33022;SDS011;19390;51.460;5.710;2023-05-10T01:35:58;63.53;;;29.80;;
33022;SDS011;19390;51.460;5.710;2023-05-10T01:38:30;50.67;;;29.58;;
33022;SDS011;19390;51.460;5.710;2023-05-10T01:43:57;70.72;;;33.45;;
33022;SDS011;19390;51.460;5.710;2023-05-10T01:46:39;69.47;;;35.00;;
33022;SDS011;19390;51.460;5.710;2023-05-10T01:49:09;77.55;;;38.03;;
33022;SDS011;19390;51.460;5.710;2023-05-10T01:51:45;80.07;;;38.72;;
33022;SDS011;19390;51.460;5.710;2023-05-10T01:54:14;83.22;;;37.95;;
33022;SDS011;19390;51.460;5.710;2023-05-10T01:56:44;86.00;;;37.83;;
33022;SDS011;19390;51.460;5.710;2023-05-10T01:59:15;70.85;;;35.28;;
33022;SDS011;19390;51.460;5.710;2023-05-10T02:01:43;68.13;;;34.20;;
33022;SDS011;19390;51.460;5.710;2023-05-10T02:04:11;85.63;;;39.30;;
33022;SDS011;19390;51.460;5.710;2023-05-10T02:06:41;69.85;;;36.13;;
33022;SDS011;19390;51.460;5.710;2023-05-10T02:09:08;85.55;;;38.78;;
33022;SDS011;19390;51.460;5.710;2023-05-10T02:11:37;94.18;;;41.72;;
33022;SDS011;19390;51.460;5.710;2023-05-10T02:14:04;73.53;;;37.53;;
33022;SDS011;19390;51.460;5.710;2023-05-10T02:16:32;77.60;;;39.97;;
33022;SDS011;19390;51.460;5.710;2023-05-10T02:19:00;99.32;;;43.90;;
33022;SDS011;19390;51.460;5.710;2023-05-10T02:21:27;94.40;;;42.45;;
33022;SDS011;19390;51.460;5.710;2023-05-10T02:23:54;90.28;;;43.78;;
33022;SDS011;19390;51.460;5.710;2023-05-10T02:26:20;93.75;;;41.78;;
33022;SDS011;19390;51.460;5.710;2023-05-10T02:28:48;87.43;;;43.97;;
33022;SDS011;19390;51.460;5.710;2023-05-10T02:31:15;97.00;;;43.33;;
33022;SDS011;19390;51.460;5.710;2023-05-10T02:33:41;90.88;;;43.95;;
33022;SDS011;19390;51.460;5.710;2023-05-10T02:36:08;91.63;;;43.92;;
33022;SDS011;19390;51.460;5.710;2023-05-10T02:38:35;86.50;;;43.97;;
33022;SDS011;19390;51.460;5.710;2023-05-10T02:41:01;76.18;;;43.00;;
33022;SDS011;19390;51.460;5.710;2023-05-10T02:43:29;80.07;;;42.38;;
33022;SDS011;19390;51.460;5.710;2023-05-10T02:45:58;82.20;;;44.35;;
33022;SDS011;19390;51.460;5.710;2023-05-10T02:48:24;90.68;;;45.13;;
33022;SDS011;19390;51.460;5.710;2023-05-10T02:50:50;91.95;;;46.38;;
33022;SDS011;19390;51.460;5.710;2023-05-10T02:53:31;79.55;;;43.45;;
33022;SDS011;19390;51.460;5.710;2023-05-10T02:56:00;73.90;;;43.42;;
33022;SDS011;19390;51.460;5.710;2023-05-10T02:58:31;87.40;;;44.73;;
33022;SDS011;19390;51.460;5.710;2023-05-10T03:00:57;78.00;;;43.17;;
33022;SDS011;19390;51.460;5.710;2023-05-10T03:03:24;81.88;;;46.22;;
33022;SDS011;19390;51.460;5.710;2023-05-10T03:05:50;82.63;;;45.53;;
33022;SDS011;19390;51.460;5.710;2023-05-10T03:08:15;90.38;;;46.40;;
33022;SDS011;19390;51.460;5.710;2023-05-10T03:10:47;82.25;;;46.20;;
33022;SDS011;19390;51.460;5.710;2023-05-10T03:16:16;83.43;;;44.25;;
33022;SDS011;19390;51.460;5.710;2023-05-10T03:18:56;84.15;;;42.85;;
33022;SDS011;19390;51.460;5.710;2023-05-10T03:21:32;95.93;;;48.20;;
33022;SDS011;19390;51.460;5.710;2023-05-10T03:23:59;81.30;;;46.88;;
33022;SDS011;19390;51.460;5.710;2023-05-10T03:26:31;91.73;;;48.60;;
33022;SDS011;19390;51.460;5.710;2023-05-10T03:28:58;96.45;;;48.45;;
33022;SDS011;19390;51.460;5.710;2023-05-10T03:31:24;99.90;;;48.47;;
33022;SDS011;19390;51.460;5.710;2023-05-10T03:33:50;102.55;;;48.92;;
33022;SDS011;19390;51.460;5.710;2023-05-10T03:36:17;99.57;;;50.33;;
33022;SDS011;19390;51.460;5.710;2023-05-10T03:38:43;86.68;;;47.15;;
33022;SDS011;19390;51.460;5.710;2023-05-10T03:41:09;98.47;;;50.25;;
33022;SDS011;19390;51.460;5.710;2023-05-10T03:43:34;102.55;;;49.78;;
33022;SDS011;19390;51.460;5.710;2023-05-10T03:46:04;100.40;;;50.63;;
33022;SDS011;19390;51.460;5.710;2023-05-10T03:48:30;89.40;;;47.40;;
33022;SDS011;19390;51.460;5.710;2023-05-10T03:50:57;90.95;;;48.50;;
33022;SDS011;19390;51.460;5.710;2023-05-10T03:53:22;98.85;;;51.08;;
33022;SDS011;19390;51.460;5.710;2023-05-10T03:55:48;86.88;;;46.90;;
33022;SDS011;19390;51.460;5.710;2023-05-10T03:58:14;80.32;;;45.88;;
33022;SDS011;19390;51.460;5.710;2023-05-10T04:00:40;96.57;;;50.58;;
33022;SDS011;19390;51.460;5.710;2023-05-10T04:03:09;96.18;;;48.88;;
33022;SDS011;19390;51.460;5.710;2023-05-10T04:05:35;92.78;;;48.22;;
33022;SDS011;19390;51.460;5.710;2023-05-10T04:08:01;94.07;;;48.17;;
33022;SDS011;19390;51.460;5.710;2023-05-10T04:10:26;88.10;;;46.75;;
33022;SDS011;19390;51.460;5.710;2023-05-10T04:12:52;92.78;;;46.45;;
33022;SDS011;19390;51.460;5.710;2023-05-10T04:15:17;86.93;;;45.45;;
33022;SDS011;19390;51.460;5.710;2023-05-10T04:17:43;96.88;;;47.00;;
33022;SDS011;19390;51.460;5.710;2023-05-10T04:20:09;83.93;;;45.88;;
33022;SDS011;19390;51.460;5.710;2023-05-10T04:22:35;82.53;;;44.88;;
33022;SDS011;19390;51.460;5.710;2023-05-10T04:25:02;87.38;;;45.65;;
33022;SDS011;19390;51.460;5.710;2023-05-10T04:27:27;102.05;;;48.92;;
33022;SDS011;19390;51.460;5.710;2023-05-10T04:29:53;79.55;;;43.33;;
33022;SDS011;19390;51.460;5.710;2023-05-10T04:32:19;86.10;;;44.10;;
33022;SDS011;19390;51.460;5.710;2023-05-10T04:34:45;94.72;;;45.88;;
33022;SDS011;19390;51.460;5.710;2023-05-10T04:37:11;99.85;;;46.15;;
33022;SDS011;19390;51.460;5.710;2023-05-10T04:39:36;92.53;;;44.50;;
33022;SDS011;19390;51.460;5.710;2023-05-10T04:42:05;103.55;;;47.72;;
33022;SDS011;19390;51.460;5.710;2023-05-10T04:44:31;104.78;;;47.90;;
33022;SDS011;19390;51.460;5.710;2023-05-10T04:46:57;106.22;;;49.90;;
33022;SDS011;19390;51.460;5.710;2023-05-10T04:49:22;109.35;;;47.78;;
33022;SDS011;19390;51.460;5.710;2023-05-10T04:51:48;116.82;;;49.63;;
33022;SDS011;19390;51.460;5.710;2023-05-10T04:54:14;114.45;;;48.85;;
33022;SDS011;19390;51.460;5.710;2023-05-10T04:56:39;121.82;;;50.97;;
33022;SDS011;19390;51.460;5.710;2023-05-10T04:59:05;118.40;;;50.92;;
33022;SDS011;19390;51.460;5.710;2023-05-10T05:01:31;141.25;;;54.78;;
33022;SDS011;19390;51.460;5.710;2023-05-10T05:03:57;128.05;;;52.70;;
33022;SDS011;19390;51.460;5.710;2023-05-10T05:06:23;143.60;;;60.17;;
33022;SDS011;19390;51.460;5.710;2023-05-10T05:08:50;131.90;;;57.35;;
33022;SDS011;19390;51.460;5.710;2023-05-10T05:11:16;124.18;;;57.00;;
33022;SDS011;19390;51.460;5.710;2023-05-10T05:13:41;127.55;;;58.17;;
33022;SDS011;19390;51.460;5.710;2023-05-10T05:16:07;129.40;;;57.35;;
33022;SDS011;19390;51.460;5.710;2023-05-10T05:18:33;110.05;;;55.10;;
33022;SDS011;19390;51.460;5.710;2023-05-10T05:20:58;114.75;;;53.22;;
33022;SDS011;19390;51.460;5.710;2023-05-10T05:23:24;124.85;;;56.97;;
33022;SDS011;19390;51.460;5.710;2023-05-10T05:25:51;129.52;;;57.92;;
33022;SDS011;19390;51.460;5.710;2023-05-10T05:28:17;120.57;;;55.40;;
33022;SDS011;19390;51.460;5.710;2023-05-10T05:30:43;103.22;;;50.83;;
33022;SDS011;19390;51.460;5.710;2023-05-10T05:33:09;110.07;;;53.08;;
33022;SDS011;19390;51.460;5.710;2023-05-10T05:35:34;98.45;;;48.67;;
33022;SDS011;19390;51.460;5.710;2023-05-10T05:38:00;102.30;;;49.60;;
33022;SDS011;19390;51.460;5.710;2023-05-10T05:40:26;92.00;;;46.58;;
33022;SDS011;19390;51.460;5.710;2023-05-10T05:42:51;95.95;;;47.10;;
33022;SDS011;19390;51.460;5.710;2023-05-10T05:45:17;76.68;;;41.47;;
33022;SDS011;19390;51.460;5.710;2023-05-10T05:47:42;77.10;;;41.95;;
33022;SDS011;19390;51.460;5.710;2023-05-10T05:50:08;74.78;;;41.60;;
33022;SDS011;19390;51.460;5.710;2023-05-10T05:52:34;80.82;;;41.97;;
33022;SDS011;19390;51.460;5.710;2023-05-10T05:55:00;69.35;;;38.17;;
33022;SDS011;19390;51.460;5.710;2023-05-10T05:57:26;68.50;;;38.88;;
33022;SDS011;19390;51.460;5.710;2023-05-10T05:59:52;72.07;;;37.85;;
33022;SDS011;19390;51.460;5.710;2023-05-10T06:02:18;61.95;;;34.22;;
33022;SDS011;19390;51.460;5.710;2023-05-10T06:04:43;67.68;;;36.70;;
33022;SDS011;19390;51.460;5.710;2023-05-10T06:07:09;59.03;;;34.78;;
33022;SDS011;19390;51.460;5.710;2023-05-10T06:09:35;54.00;;;32.00;;
33022;SDS011;19390;51.460;5.710;2023-05-10T06:12:00;53.33;;;30.92;;
33022;SDS011;19390;51.460;5.710;2023-05-10T06:14:26;49.80;;;29.35;;
33022;SDS011;19390;51.460;5.710;2023-05-10T06:16:52;47.67;;;28.42;;
33022;SDS011;19390;51.460;5.710;2023-05-10T06:19:18;51.05;;;31.58;;
33022;SDS011;19390;51.460;5.710;2023-05-10T06:21:43;45.50;;;26.55;;
33022;SDS011;19390;51.460;5.710;2023-05-10T06:24:09;46.13;;;29.23;;
33022;SDS011;19390;51.460;5.710;2023-05-10T06:26:35;45.30;;;28.00;;
33022;SDS011;19390;51.460;5.710;2023-05-10T06:29:00;39.42;;;26.45;;
33022;SDS011;19390;51.460;5.710;2023-05-10T06:31:26;44.75;;;28.40;;
33022;SDS011;19390;51.460;5.710;2023-05-10T06:33:52;45.58;;;28.55;;
33022;SDS011;19390;51.460;5.710;2023-05-10T06:36:18;48.22;;;28.52;;
33022;SDS011;19390;51.460;5.710;2023-05-10T06:38:44;43.65;;;27.88;;
33022;SDS011;19390;51.460;5.710;2023-05-10T06:41:10;45.75;;;29.13;;
33022;SDS011;19390;51.460;5.710;2023-05-10T06:43:36;42.10;;;27.42;;
33022;SDS011;19390;51.460;5.710;2023-05-10T06:46:05;38.75;;;26.20;;
33022;SDS011;19390;51.460;5.710;2023-05-10T06:48:31;40.95;;;26.38;;
33022;SDS011;19390;51.460;5.710;2023-05-10T06:50:57;46.38;;;28.77;;
33022;SDS011;19390;51.460;5.710;2023-05-10T06:53:23;46.38;;;27.65;;
33022;SDS011;19390;51.460;5.710;2023-05-10T06:55:49;47.08;;;28.73;;
33022;SDS011;19390;51.460;5.710;2023-05-10T06:58:15;40.45;;;26.75;;
33022;SDS011;19390;51.460;5.710;2023-05-10T07:00:41;43.83;;;28.17;;
33022;SDS011;19390;51.460;5.710;2023-05-10T07:03:09;42.47;;;27.02;;
33022;SDS011;19390;51.460;5.710;2023-05-10T07:05:35;41.78;;;26.65;;
33022;SDS011;19390;51.460;5.710;2023-05-10T07:08:01;43.38;;;27.27;;
33022;SDS011;19390;51.460;5.710;2023-05-10T07:10:27;38.17;;;26.15;;
33022;SDS011;19390;51.460;5.710;2023-05-10T07:12:53;41.85;;;27.10;;
33022;SDS011;19390;51.460;5.710;2023-05-10T07:15:19;41.72;;;27.02;;
33022;SDS011;19390;51.460;5.710;2023-05-10T07:17:45;38.80;;;27.30;;
33022;SDS011;19390;51.460;5.710;2023-05-10T07:20:11;43.55;;;28.38;;
33022;SDS011;19390;51.460;5.710;2023-05-10T07:22:37;45.55;;;30.40;;
33022;SDS011;19390;51.460;5.710;2023-05-10T07:25:03;43.55;;;29.73;;
33022;SDS011;19390;51.460;5.710;2023-05-10T07:27:29;44.65;;;29.75;;
33022;SDS011;19390;51.460;5.710;2023-05-10T07:29:54;40.38;;;27.60;;
33022;SDS011;19390;51.460;5.710;2023-05-10T07:32:21;44.28;;;28.83;;
33022;SDS011;19390;51.460;5.710;2023-05-10T07:34:47;40.95;;;29.02;;
33022;SDS011;19390;51.460;5.710;2023-05-10T07:37:12;45.40;;;30.17;;
33022;SDS011;19390;51.460;5.710;2023-05-10T07:39:38;46.40;;;31.48;;
33022;SDS011;19390;51.460;5.710;2023-05-10T07:42:03;48.42;;;30.05;;
33022;SDS011;19390;51.460;5.710;2023-05-10T07:44:29;37.15;;;28.38;;
33022;SDS011;19390;51.460;5.710;2023-05-10T07:46:55;47.13;;;30.27;;
33022;SDS011;19390;51.460;5.710;2023-05-10T07:49:20;45.03;;;28.08;;
33022;SDS011;19390;51.460;5.710;2023-05-10T07:51:46;41.53;;;29.02;;
33022;SDS011;19390;51.460;5.710;2023-05-10T07:54:12;43.72;;;28.38;;
33022;SDS011;19390;51.460;5.710;2023-05-10T07:56:38;47.40;;;28.13;;
33022;SDS011;19390;51.460;5.710;2023-05-10T07:59:06;45.53;;;27.85;;
33022;SDS011;19390;51.460;5.710;2023-05-10T08:01:33;43.08;;;28.15;;
33022;SDS011;19390;51.460;5.710;2023-05-10T08:03:59;40.90;;;27.73;;
33022;SDS011;19390;51.460;5.710;2023-05-10T08:06:26;45.47;;;29.65;;
33022;SDS011;19390;51.460;5.710;2023-05-10T08:08:53;40.25;;;26.83;;
33022;SDS011;19390;51.460;5.710;2023-05-10T08:11:22;44.35;;;28.48;;
33022;SDS011;19390;51.460;5.710;2023-05-10T08:13:48;41.05;;;26.80;;
33022;SDS011;19390;51.460;5.710;2023-05-10T08:16:15;41.85;;;27.40;;
33022;SDS011;19390;51.460;5.710;2023-05-10T08:18:42;40.97;;;27.58;;
33022;SDS011;19390;51.460;5.710;2023-05-10T08:21:08;35.78;;;24.60;;
33022;SDS011;19390;51.460;5.710;2023-05-10T08:23:36;45.45;;;27.77;;
33022;SDS011;19390;51.460;5.710;2023-05-10T08:26:02;41.10;;;25.83;;
33022;SDS011;19390;51.460;5.710;2023-05-10T08:28:27;40.08;;;25.85;;
33022;SDS011;19390;51.460;5.710;2023-05-10T08:30:53;34.60;;;25.02;;
33022;SDS011;19390;51.460;5.710;2023-05-10T08:33:19;30.92;;;21.90;;
33022;SDS011;19390;51.460;5.710;2023-05-10T08:35:44;28.70;;;21.55;;
33022;SDS011;19390;51.460;5.710;2023-05-10T08:38:10;29.35;;;21.25;;
33022;SDS011;19390;51.460;5.710;2023-05-10T08:40:37;24.92;;;17.40;;
33022;SDS011;19390;51.460;5.710;2023-05-10T08:43:05;24.98;;;17.80;;
33022;SDS011;19390;51.460;5.710;2023-05-10T08:45:36;22.90;;;15.00;;
33022;SDS011;19390;51.460;5.710;2023-05-10T08:48:07;19.92;;;14.75;;
33022;SDS011;19390;51.460;5.710;2023-05-10T08:50:35;17.98;;;12.27;;
33022;SDS011;19390;51.460;5.710;2023-05-10T08:53:03;18.20;;;11.68;;
33022;SDS011;19390;51.460;5.710;2023-05-10T08:55:31;14.63;;;10.70;;
33022;SDS011;19390;51.460;5.710;2023-05-10T08:57:58;18.55;;;11.95;;
33022;SDS011;19390;51.460;5.710;2023-05-10T09:00:24;14.55;;;10.40;;
33022;SDS011;19390;51.460;5.710;2023-05-10T09:02:51;19.92;;;11.73;;
33022;SDS011;19390;51.460;5.710;2023-05-10T09:05:18;16.58;;;10.70;;
33022;SDS011;19390;51.460;5.710;2023-05-10T09:07:44;15.13;;;9.82;;
33022;SDS011;19390;51.460;5.710;2023-05-10T09:10:10;14.48;;;10.15;;
33022;SDS011;19390;51.460;5.710;2023-05-10T09:12:38;13.52;;;10.45;;
33022;SDS011;19390;51.460;5.710;2023-05-10T09:15:04;12.30;;;8.57;;
33022;SDS011;19390;51.460;5.710;2023-05-10T09:17:32;13.07;;;10.02;;
33022;SDS011;19390;51.460;5.710;2023-05-10T09:19:59;13.88;;;10.23;;
33022;SDS011;19390;51.460;5.710;2023-05-10T09:22:25;13.50;;;9.65;;
33022;SDS011;19390;51.460;5.710;2023-05-10T09:25:09;15.45;;;9.50;;
33022;SDS011;19390;51.460;5.710;2023-05-10T09:27:37;15.60;;;10.88;;
33022;SDS011;19390;51.460;5.710;2023-05-10T09:30:09;14.05;;;11.10;;
33022;SDS011;19390;51.460;5.710;2023-05-10T09:32:39;17.65;;;10.15;;
33022;SDS011;19390;51.460;5.710;2023-05-10T09:35:16;16.80;;;10.13;;
33022;SDS011;19390;51.460;5.710;2023-05-10T09:37:44;14.55;;;10.82;;
33022;SDS011;19390;51.460;5.710;2023-05-10T09:40:15;16.58;;;10.93;;
33022;SDS011;19390;51.460;5.710;2023-05-10T09:42:58;14.98;;;10.52;;
33022;SDS011;19390;51.460;5.710;2023-05-10T09:45:29;16.60;;;9.02;;
33022;SDS011;19390;51.460;5.710;2023-05-10T09:47:57;13.90;;;7.88;;
33022;SDS011;19390;51.460;5.710;2023-05-10T09:50:23;10.60;;;8.20;;
33022;SDS011;19390;51.460;5.710;2023-05-10T09:52:51;13.30;;;7.28;;
33022;SDS011;19390;51.460;5.710;2023-05-10T09:55:19;8.43;;;7.10;;
33022;SDS011;19390;51.460;5.710;2023-05-10T09:57:49;12.15;;;7.15;;
33022;SDS011;19390;51.460;5.710;2023-05-10T10:00:23;7.43;;;6.30;;
33022;SDS011;19390;51.460;5.710;2023-05-10T10:02:58;8.45;;;6.57;;
33022;SDS011;19390;51.460;5.710;2023-05-10T10:05:28;11.93;;;6.88;;
33022;SDS011;19390;51.460;5.710;2023-05-10T10:07:57;13.15;;;6.40;;
33022;SDS011;19390;51.460;5.710;2023-05-10T10:10:24;7.68;;;5.57;;
33022;SDS011;19390;51.460;5.710;2023-05-10T10:12:50;10.98;;;7.30;;
33022;SDS011;19390;51.460;5.710;2023-05-10T10:15:16;12.18;;;8.50;;
33022;SDS011;19390;51.460;5.710;2023-05-10T10:17:42;12.80;;;9.15;;
33022;SDS011;19390;51.460;5.710;2023-05-10T10:20:08;12.35;;;8.88;;
33022;SDS011;19390;51.460;5.710;2023-05-10T10:22:35;12.35;;;9.73;;
33022;SDS011;19390;51.460;5.710;2023-05-10T10:25:02;15.00;;;10.93;;
33022;SDS011;19390;51.460;5.710;2023-05-10T10:28:16;12.77;;;11.27;;
33022;SDS011;19390;51.460;5.710;2023-05-10T10:36:01;12.93;;;10.55;;
33022;SDS011;19390;51.460;5.710;2023-05-10T10:39:11;13.07;;;10.43;;
33022;SDS011;19390;51.460;5.710;2023-05-10T10:47:21;13.65;;;9.95;;
33022;SDS011;19390;51.460;5.710;2023-05-10T11:00:26;10.57;;;8.65;;
33022;SDS011;19390;51.460;5.710;2023-05-10T11:10:37;11.13;;;6.97;;
33022;SDS011;19390;51.460;5.710;2023-05-10T11:13:04;7.45;;;6.50;;
33022;SDS011;19390;51.460;5.710;2023-05-10T11:18:16;8.65;;;4.95;;
33022;SDS011;19390;51.460;5.710;2023-05-10T11:20:43;6.72;;;5.30;;
33022;SDS011;19390;51.460;5.710;2023-05-10T11:23:14;9.90;;;5.50;;
33022;SDS011;19390;51.460;5.710;2023-05-10T11:25:41;6.78;;;5.30;;
33022;SDS011;19390;51.460;5.710;2023-05-10T11:28:09;8.00;;;7.20;;
33022;SDS011;19390;51.460;5.710;2023-05-10T11:30:35;11.32;;;7.63;;
33022;SDS011;19390;51.460;5.710;2023-05-10T11:33:02;10.85;;;9.77;;
33022;SDS011;19390;51.460;5.710;2023-05-10T11:35:27;12.65;;;9.98;;
33022;SDS011;19390;51.460;5.710;2023-05-10T11:37:53;12.73;;;10.68;;
33022;SDS011;19390;51.460;5.710;2023-05-10T11:40:22;15.10;;;12.70;;
33022;SDS011;19390;51.460;5.710;2023-05-10T11:42:52;15.88;;;14.18;;
33022;SDS011;19390;51.460;5.710;2023-05-10T11:45:23;15.32;;;13.55;;
33022;SDS011;19390;51.460;5.710;2023-05-10T11:47:49;14.65;;;13.20;;
33022;SDS011;19390;51.460;5.710;2023-05-10T11:50:16;14.18;;;12.65;;
33022;SDS011;19390;51.460;5.710;2023-05-10T11:52:42;14.95;;;10.98;;
33022;SDS011;19390;51.460;5.710;2023-05-10T11:55:09;13.55;;;10.45;;
33022;SDS011;19390;51.460;5.710;2023-05-10T11:57:35;12.88;;;10.95;;
33022;SDS011;19390;51.460;5.710;2023-05-10T12:00:03;11.48;;;10.23;;
33022;SDS011;19390;51.460;5.710;2023-05-10T12:02:29;12.27;;;10.85;;
33022;SDS011;19390;51.460;5.710;2023-05-10T12:04:55;14.60;;;11.65;;
33022;SDS011;19390;51.460;5.710;2023-05-10T12:07:21;14.05;;;11.35;;
33022;SDS011;19390;51.460;5.710;2023-05-10T12:10:06;13.93;;;11.55;;
33022;SDS011;19390;51.460;5.710;2023-05-10T12:12:37;15.18;;;12.45;;
33022;SDS011;19390;51.460;5.710;2023-05-10T12:15:10;16.25;;;13.85;;
33022;SDS011;19390;51.460;5.710;2023-05-10T12:17:37;16.30;;;14.18;;
33022;SDS011;19390;51.460;5.710;2023-05-10T12:20:18;15.15;;;13.43;;
33022;SDS011;19390;51.460;5.710;2023-05-10T12:22:46;17.15;;;13.45;;
33022;SDS011;19390;51.460;5.710;2023-05-10T12:25:11;18.60;;;15.13;;
33022;SDS011;19390;51.460;5.710;2023-05-10T12:27:37;17.50;;;15.45;;
33022;SDS011;19390;51.460;5.710;2023-05-10T12:30:03;16.30;;;13.20;;
33022;SDS011;19390;51.460;5.710;2023-05-10T12:32:41;19.52;;;13.80;;
33022;SDS011;19390;51.460;5.710;2023-05-10T12:35:08;16.50;;;14.40;;
33022;SDS011;19390;51.460;5.710;2023-05-10T12:37:34;16.63;;;13.88;;
33022;SDS011;19390;51.460;5.710;2023-05-10T12:40:04;16.67;;;13.43;;
33022;SDS011;19390;51.460;5.710;2023-05-10T12:42:31;16.98;;;13.05;;
33022;SDS011;19390;51.460;5.710;2023-05-10T12:44:57;12.80;;;11.07;;
33022;SDS011;19390;51.460;5.710;2023-05-10T12:47:23;16.42;;;12.23;;
33022;SDS011;19390;51.460;5.710;2023-05-10T12:49:48;15.05;;;13.45;;
33022;SDS011;19390;51.460;5.710;2023-05-10T12:52:14;16.92;;;13.70;;
33022;SDS011;19390;51.460;5.710;2023-05-10T12:54:40;17.58;;;15.35;;
33022;SDS011;19390;51.460;5.710;2023-05-10T12:57:05;20.25;;;14.75;;
33022;SDS011;19390;51.460;5.710;2023-05-10T12:59:31;17.08;;;13.18;;
33022;SDS011;19390;51.460;5.710;2023-05-10T13:01:57;16.75;;;12.77;;
33022;SDS011;19390;51.460;5.710;2023-05-10T13:04:22;19.08;;;15.05;;
33022;SDS011;19390;51.460;5.710;2023-05-10T13:06:48;17.77;;;15.35;;
33022;SDS011;19390;51.460;5.710;2023-05-10T13:09:13;21.35;;;15.23;;
33022;SDS011;19390;51.460;5.710;2023-05-10T13:11:40;19.90;;;14.23;;
33022;SDS011;19390;51.460;5.710;2023-05-10T13:14:05;20.45;;;16.55;;
33022;SDS011;19390;51.460;5.710;2023-05-10T13:16:31;19.15;;;16.40;;
33022;SDS011;19390;51.460;5.710;2023-05-10T13:18:57;20.10;;;16.77;;
33022;SDS011;19390;51.460;5.710;2023-05-10T13:21:23;24.38;;;17.27;;
33022;SDS011;19390;51.460;5.710;2023-05-10T13:23:50;27.20;;;17.73;;
33022;SDS011;19390;51.460;5.710;2023-05-10T13:26:15;17.52;;;13.25;;
33022;SDS011;19390;51.460;5.710;2023-05-10T13:28:41;13.40;;;11.20;;
33022;SDS011;19390;51.460;5.710;2023-05-10T13:31:07;12.05;;;8.98;;
33022;SDS011;19390;51.460;5.710;2023-05-10T13:33:33;11.55;;;9.07;;
33022;SDS011;19390;51.460;5.710;2023-05-10T13:35:58;8.95;;;8.05;;
33022;SDS011;19390;51.460;5.710;2023-05-10T13:38:24;10.98;;;8.18;;
33022;SDS011;19390;51.460;5.710;2023-05-10T13:40:49;10.43;;;8.20;;
33022;SDS011;19390;51.460;5.710;2023-05-10T13:43:17;8.88;;;7.13;;
33022;SDS011;19390;51.460;5.710;2023-05-10T13:45:43;13.07;;;8.75;;
33022;SDS011;19390;51.460;5.710;2023-05-10T13:48:09;7.88;;;7.10;;
33022;SDS011;19390;51.460;5.710;2023-05-10T13:50:35;7.68;;;6.97;;
33022;SDS011;19390;51.460;5.710;2023-05-10T13:53:00;6.80;;;5.78;;
33022;SDS011;19390;51.460;5.710;2023-05-10T13:55:26;5.40;;;4.90;;
33022;SDS011;19390;51.460;5.710;2023-05-10T13:57:52;7.43;;;6.35;;
33022;SDS011;19390;51.460;5.710;2023-05-10T14:00:17;7.28;;;6.57;;
33022;SDS011;19390;51.460;5.710;2023-05-10T14:02:43;6.75;;;6.05;;
33022;SDS011;19390;51.460;5.710;2023-05-10T14:05:09;7.78;;;6.60;;
33022;SDS011;19390;51.460;5.710;2023-05-10T14:07:34;8.75;;;6.90;;
33022;SDS011;19390;51.460;5.710;2023-05-10T14:10:00;8.75;;;7.13;;
33022;SDS011;19390;51.460;5.710;2023-05-10T14:12:26;8.55;;;7.65;;
33022;SDS011;19390;51.460;5.710;2023-05-10T14:14:52;9.15;;;7.90;;
33022;SDS011;19390;51.460;5.710;2023-05-10T14:17:17;8.50;;;7.60;;
33022;SDS011;19390;51.460;5.710;2023-05-10T14:19:43;10.23;;;9.23;;
33022;SDS011;19390;51.460;5.710;2023-05-10T14:22:08;14.98;;;10.48;;
33022;SDS011;19390;51.460;5.710;2023-05-10T14:24:34;13.77;;;12.25;;
33022;SDS011;19390;51.460;5.710;2023-05-10T14:27:00;17.60;;;14.05;;
33022;SDS011;19390;51.460;5.710;2023-05-10T14:29:25;16.63;;;12.80;;
33022;SDS011;19390;51.460;5.710;2023-05-10T14:31:51;17.17;;;14.27;;
33022;SDS011;19390;51.460;5.710;2023-05-10T14:34:16;16.00;;;14.07;;
33022;SDS011;19390;51.460;5.710;2023-05-10T14:36:42;19.70;;;14.88;;
33022;SDS011;19390;51.460;5.710;2023-05-10T14:39:08;19.77;;;15.20;;
33022;SDS011;19390;51.460;5.710;2023-05-10T14:41:35;24.02;;;16.52;;
33022;SDS011;19390;51.460;5.710;2023-05-10T14:44:00;22.38;;;15.68;;
33022;SDS011;19390;51.460;5.710;2023-05-10T14:46:28;24.17;;;16.80;;
33022;SDS011;19390;51.460;5.710;2023-05-10T14:48:54;21.63;;;16.88;;
33022;SDS011;19390;51.460;5.710;2023-05-10T14:51:20;26.70;;;18.23;;
33022;SDS011;19390;51.460;5.710;2023-05-10T14:53:47;26.60;;;17.83;;
33022;SDS011;19390;51.460;5.710;2023-05-10T14:56:14;22.33;;;17.67;;
33022;SDS011;19390;51.460;5.710;2023-05-10T14:58:40;23.63;;;16.05;;
33022;SDS011;19390;51.460;5.710;2023-05-10T15:01:05;22.65;;;16.38;;
33022;SDS011;19390;51.460;5.710;2023-05-10T15:03:31;20.35;;;16.17;;
33022;SDS011;19390;51.460;5.710;2023-05-10T15:05:56;20.27;;;15.82;;
33022;SDS011;19390;51.460;5.710;2023-05-10T15:08:23;17.90;;;14.27;;